sensor_id;sensor_type;location;lat;lon;timestamp;pressure;altitude;pressure_sealevel;temperature;humidity
63708;BME280;67643;-34.198;22.084;2023-07-08T00:00:50;99912.32;;;18.31;42.64
63708;BME280;67643;-34.198;22.084;2023-07-08T00:03:19;99915.35;;;18.79;42.66
63708;BME280;67643;-34.198;22.084;2023-07-08T00:05:50;99916.26;;;19.06;42.29
63708;BME280;67643;-34.198;22.084;2023-07-08T00:08:21;99917.33;;;18.65;42.52
63708;BME280;67643;-34.198;22.084;2023-07-08T00:10:49;99919.08;;;18.88;42.47
63708;BME280;67643;-34.198;22.084;2023-07-08T00:13:18;99917.55;;;18.73;42.32
63708;BME280;67643;-34.198;22.084;2023-07-08T00:15:46;99915.48;;;18.72;42.36
63708;BME280;67643;-34.198;22.084;2023-07-08T00:18:16;99914.99;;;18.93;42.30
63708;BME280;67643;-34.198;22.084;2023-07-08T00:20:47;99912.16;;;18.90;42.32
63708;BME280;67643;-34.198;22.084;2023-07-08T00:23:15;99913.75;;;18.87;42.33
63708;BME280;67643;-34.198;22.084;2023-07-08T00:25:44;99905.21;;;18.75;42.52
63708;BME280;67643;-34.198;22.084;2023-07-08T00:28:18;99907.99;;;18.75;42.51
63708;BME280;67643;-34.198;22.084;2023-07-08T00:30:47;99912.50;;;18.74;42.59
63708;BME280;67643;-34.198;22.084;2023-07-08T00:33:15;99917.38;;;18.94;42.27
63708;BME280;67643;-34.198;22.084;2023-07-08T00:35:45;99906.70;;;18.64;42.38
63708;BME280;67643;-34.198;22.084;2023-07-08T00:38:21;99916.11;;;18.86;42.41
63708;BME280;67643;-34.198;22.084;2023-07-08T00:40:53;99915.18;;;18.86;42.37
63708;BME280;67643;-34.198;22.084;2023-07-08T00:43:34;99921.45;;;18.96;42.26
63708;BME280;67643;-34.198;22.084;2023-07-08T00:46:21;99922.72;;;18.71;42.28
63708;BME280;67643;-34.198;22.084;2023-07-08T00:49:00;99911.20;;;18.88;42.32
63708;BME280;67643;-34.198;22.084;2023-07-08T00:51:30;99908.91;;;18.65;42.32
63708;BME280;67643;-34.198;22.084;2023-07-08T00:53:59;99915.76;;;18.79;42.44
63708;BME280;67643;-34.198;22.084;2023-07-08T00:56:30;99911.77;;;18.86;42.33
63708;BME280;67643;-34.198;22.084;2023-07-08T00:59:02;99905.57;;;18.57;42.37
63708;BME280;67643;-34.198;22.084;2023-07-08T01:01:34;99908.24;;;18.74;42.14
63708;BME280;67643;-34.198;22.084;2023-07-08T01:04:05;99908.78;;;18.81;42.32
63708;BME280;67643;-34.198;22.084;2023-07-08T01:06:38;99897.74;;;18.75;42.37
63708;BME280;67643;-34.198;22.084;2023-07-08T01:09:09;99905.41;;;18.63;42.18
63708;BME280;67643;-34.198;22.084;2023-07-08T01:11:40;99906.47;;;18.47;42.40
63708;BME280;67643;-34.198;22.084;2023-07-08T01:14:12;99897.72;;;18.66;42.38
63708;BME280;67643;-34.198;22.084;2023-07-08T01:16:42;99898.60;;;18.44;42.38
63708;BME280;67643;-34.198;22.084;2023-07-08T01:19:16;99897.16;;;18.67;42.29
63708;BME280;67643;-34.198;22.084;2023-07-08T01:21:47;99896.06;;;18.58;42.46
63708;BME280;67643;-34.198;22.084;2023-07-08T01:24:26;99896.95;;;18.35;42.40
63708;BME280;67643;-34.198;22.084;2023-07-08T01:26:56;99895.30;;;18.64;42.24
63708;BME280;67643;-34.198;22.084;2023-07-08T01:29:25;99890.43;;;18.24;41.84
63708;BME280;67643;-34.198;22.084;2023-07-08T01:31:56;99887.88;;;18.55;41.98
63708;BME280;67643;-34.198;22.084;2023-07-08T01:34:25;99893.89;;;18.79;41.23
63708;BME280;67643;-34.198;22.084;2023-07-08T01:36:55;99901.11;;;18.15;41.94
63708;BME280;67643;-34.198;22.084;2023-07-08T01:39:27;99891.00;;;18.34;41.20
63708;BME280;67643;-34.198;22.084;2023-07-08T01:41:56;99889.54;;;18.37;41.52
63708;BME280;67643;-34.198;22.084;2023-07-08T01:44:29;99895.14;;;18.30;41.94
63708;BME280;67643;-34.198;22.084;2023-07-08T01:47:00;99882.46;;;18.28;41.90
63708;BME280;67643;-34.198;22.084;2023-07-08T01:49:31;99894.22;;;18.57;41.42
63708;BME280;67643;-34.198;22.084;2023-07-08T01:52:02;99880.53;;;18.48;41.62
63708;BME280;67643;-34.198;22.084;2023-07-08T01:54:31;99880.62;;;18.19;41.98
63708;BME280;67643;-34.198;22.084;2023-07-08T01:56:59;99880.81;;;18.11;41.67
63708;BME280;67643;-34.198;22.084;2023-07-08T01:59:28;99882.95;;;18.15;41.70
63708;BME280;67643;-34.198;22.084;2023-07-08T02:01:57;99880.15;;;18.11;41.02
63708;BME280;67643;-34.198;22.084;2023-07-08T02:04:26;99880.43;;;18.21;41.41
63708;BME280;67643;-34.198;22.084;2023-07-08T02:06:55;99883.85;;;18.30;41.33
63708;BME280;67643;-34.198;22.084;2023-07-08T02:09:24;99878.24;;;18.30;40.65
63708;BME280;67643;-34.198;22.084;2023-07-08T02:11:53;99874.18;;;18.23;41.05
63708;BME280;67643;-34.198;22.084;2023-07-08T02:14:22;99870.34;;;18.57;41.02
63708;BME280;67643;-34.198;22.084;2023-07-08T02:16:51;99867.86;;;17.96;41.10
63708;BME280;67643;-34.198;22.084;2023-07-08T02:19:19;99879.93;;;17.90;41.28
63708;BME280;67643;-34.198;22.084;2023-07-08T02:21:48;99871.98;;;18.08;40.96
63708;BME280;67643;-34.198;22.084;2023-07-08T02:24:16;99879.38;;;18.44;41.10
63708;BME280;67643;-34.198;22.084;2023-07-08T02:26:46;99869.62;;;18.30;40.44
63708;BME280;67643;-34.198;22.084;2023-07-08T02:29:14;99868.27;;;18.13;40.71
63708;BME280;67643;-34.198;22.084;2023-07-08T02:31:43;99866.21;;;18.17;40.72
63708;BME280;67643;-34.198;22.084;2023-07-08T02:34:12;99866.33;;;17.81;39.97
63708;BME280;67643;-34.198;22.084;2023-07-08T02:36:40;99866.68;;;17.88;40.77
63708;BME280;67643;-34.198;22.084;2023-07-08T02:39:09;99864.72;;;18.09;39.94
63708;BME280;67643;-34.198;22.084;2023-07-08T02:41:37;99866.75;;;17.81;40.24
63708;BME280;67643;-34.198;22.084;2023-07-08T02:44:06;99871.28;;;18.04;40.66
63708;BME280;67643;-34.198;22.084;2023-07-08T02:46:34;99871.93;;;17.69;40.11
63708;BME280;67643;-34.198;22.084;2023-07-08T02:49:03;99873.72;;;18.15;39.97
63708;BME280;67643;-34.198;22.084;2023-07-08T02:51:32;99872.83;;;17.95;40.61
63708;BME280;67643;-34.198;22.084;2023-07-08T02:54:00;99867.09;;;18.16;40.83
63708;BME280;67643;-34.198;22.084;2023-07-08T02:56:28;99864.96;;;17.87;39.65
63708;BME280;67643;-34.198;22.084;2023-07-08T02:58:57;99857.80;;;18.05;39.87
63708;BME280;67643;-34.198;22.084;2023-07-08T03:01:25;99856.48;;;17.45;40.83
63708;BME280;67643;-34.198;22.084;2023-07-08T03:03:54;99857.38;;;17.56;40.18
63708;BME280;67643;-34.198;22.084;2023-07-08T03:06:23;99858.74;;;17.44;40.50
63708;BME280;67643;-34.198;22.084;2023-07-08T03:08:51;99861.79;;;17.87;40.75
63708;BME280;67643;-34.198;22.084;2023-07-08T03:11:20;99860.67;;;17.31;39.15
63708;BME280;67643;-34.198;22.084;2023-07-08T03:13:48;99855.68;;;17.84;40.46
63708;BME280;67643;-34.198;22.084;2023-07-08T03:16:17;99858.99;;;17.54;39.80
63708;BME280;67643;-34.198;22.084;2023-07-08T03:18:45;99859.95;;;17.68;38.79
63708;BME280;67643;-34.198;22.084;2023-07-08T03:21:16;99858.55;;;17.67;39.12
63708;BME280;67643;-34.198;22.084;2023-07-08T03:23:44;99854.42;;;17.66;39.73
63708;BME280;67643;-34.198;22.084;2023-07-08T03:26:16;99849.09;;;17.51;39.08
63708;BME280;67643;-34.198;22.084;2023-07-08T03:28:46;99845.51;;;17.48;40.38
63708;BME280;67643;-34.198;22.084;2023-07-08T03:31:15;99840.58;;;17.57;40.73
63708;BME280;67643;-34.198;22.084;2023-07-08T03:33:43;99845.81;;;17.37;41.16
63708;BME280;67643;-34.198;22.084;2023-07-08T03:36:14;99841.92;;;17.66;41.24
63708;BME280;67643;-34.198;22.084;2023-07-08T03:38:44;99850.90;;;17.41;40.90
63708;BME280;67643;-34.198;22.084;2023-07-08T03:41:13;99849.67;;;17.74;40.88
63708;BME280;67643;-34.198;22.084;2023-07-08T03:43:42;99847.43;;;17.94;40.89
63708;BME280;67643;-34.198;22.084;2023-07-08T03:46:11;99848.28;;;17.50;40.47
63708;BME280;67643;-34.198;22.084;2023-07-08T03:48:40;99839.00;;;17.88;39.34
63708;BME280;67643;-34.198;22.084;2023-07-08T03:51:13;99846.80;;;17.86;39.50
63708;BME280;67643;-34.198;22.084;2023-07-08T03:53:44;99849.76;;;17.34;40.19
63708;BME280;67643;-34.198;22.084;2023-07-08T03:56:13;99856.11;;;17.58;39.65
63708;BME280;67643;-34.198;22.084;2023-07-08T03:58:42;99855.41;;;17.78;39.50
63708;BME280;67643;-34.198;22.084;2023-07-08T04:01:15;99852.83;;;17.44;40.19
63708;BME280;67643;-34.198;22.084;2023-07-08T04:03:44;99849.65;;;17.76;39.73
63708;BME280;67643;-34.198;22.084;2023-07-08T04:06:13;99842.45;;;17.17;39.44
63708;BME280;67643;-34.198;22.084;2023-07-08T04:08:41;99842.04;;;17.47;39.73
63708;BME280;67643;-34.198;22.084;2023-07-08T04:11:10;99837.97;;;17.57;40.09
63708;BME280;67643;-34.198;22.084;2023-07-08T04:13:40;99843.51;;;17.43;40.34
63708;BME280;67643;-34.198;22.084;2023-07-08T04:16:13;99851.15;;;17.50;40.41
63708;BME280;67643;-34.198;22.084;2023-07-08T04:18:48;99853.61;;;17.61;40.18
63708;BME280;67643;-34.198;22.084;2023-07-08T04:21:17;99850.91;;;17.76;40.39
63708;BME280;67643;-34.198;22.084;2023-07-08T04:23:46;99855.48;;;17.15;40.07
63708;BME280;67643;-34.198;22.084;2023-07-08T04:26:15;99858.56;;;17.46;39.53
63708;BME280;67643;-34.198;22.084;2023-07-08T04:28:44;99863.33;;;17.60;40.52
63708;BME280;67643;-34.198;22.084;2023-07-08T04:31:12;99866.85;;;17.58;40.96
63708;BME280;67643;-34.198;22.084;2023-07-08T04:33:40;99871.02;;;17.51;40.15
63708;BME280;67643;-34.198;22.084;2023-07-08T04:36:13;99867.12;;;17.47;40.66
63708;BME280;67643;-34.198;22.084;2023-07-08T04:38:41;99872.33;;;17.68;39.44
63708;BME280;67643;-34.198;22.084;2023-07-08T04:41:10;99877.91;;;17.58;40.34
63708;BME280;67643;-34.198;22.084;2023-07-08T04:43:38;99887.35;;;17.49;41.27
63708;BME280;67643;-34.198;22.084;2023-07-08T04:46:17;99889.26;;;17.63;40.87
63708;BME280;67643;-34.198;22.084;2023-07-08T04:48:47;99892.02;;;17.35;41.65
63708;BME280;67643;-34.198;22.084;2023-07-08T04:51:15;99892.00;;;17.46;41.56
63708;BME280;67643;-34.198;22.084;2023-07-08T04:53:44;99903.48;;;17.10;41.97
63708;BME280;67643;-34.198;22.084;2023-07-08T04:56:13;99911.66;;;17.39;42.00
63708;BME280;67643;-34.198;22.084;2023-07-08T04:58:41;99907.23;;;17.34;41.62
63708;BME280;67643;-34.198;22.084;2023-07-08T05:01:10;99910.76;;;17.31;41.67
63708;BME280;67643;-34.198;22.084;2023-07-08T05:03:38;99905.43;;;17.39;41.12
63708;BME280;67643;-34.198;22.084;2023-07-08T05:06:07;99909.01;;;17.34;42.34
63708;BME280;67643;-34.198;22.084;2023-07-08T05:08:35;99912.93;;;17.37;42.76
63708;BME280;67643;-34.198;22.084;2023-07-08T05:11:04;99913.04;;;17.44;42.25
63708;BME280;67643;-34.198;22.084;2023-07-08T05:13:32;99914.05;;;17.90;42.83
63708;BME280;67643;-34.198;22.084;2023-07-08T05:16:01;99915.38;;;17.65;43.07
63708;BME280;67643;-34.198;22.084;2023-07-08T05:18:30;99918.66;;;17.75;42.99
63708;BME280;67643;-34.198;22.084;2023-07-08T05:20:58;99924.24;;;17.66;43.22
63708;BME280;67643;-34.198;22.084;2023-07-08T05:23:27;99924.91;;;17.48;43.66
63708;BME280;67643;-34.198;22.084;2023-07-08T05:25:58;99929.84;;;17.37;43.70
63708;BME280;67643;-34.198;22.084;2023-07-08T05:28:27;99933.12;;;17.08;44.42
63708;BME280;67643;-34.198;22.084;2023-07-08T05:30:56;99937.22;;;17.33;44.16
63708;BME280;67643;-34.198;22.084;2023-07-08T05:33:26;99938.55;;;17.57;44.30
63708;BME280;67643;-34.198;22.084;2023-07-08T05:35:55;99944.57;;;17.38;44.39
63708;BME280;67643;-34.198;22.084;2023-07-08T05:38:25;99944.58;;;17.64;44.39
63708;BME280;67643;-34.198;22.084;2023-07-08T05:40:56;99942.50;;;17.41;44.71
63708;BME280;67643;-34.198;22.084;2023-07-08T05:43:26;99946.69;;;17.82;44.58
63708;BME280;67643;-34.198;22.084;2023-07-08T05:45:58;99947.45;;;17.52;44.54
63708;BME280;67643;-34.198;22.084;2023-07-08T05:48:27;99955.79;;;17.47;44.57
63708;BME280;67643;-34.198;22.084;2023-07-08T05:50:56;99965.22;;;17.70;44.47
63708;BME280;67643;-34.198;22.084;2023-07-08T05:53:25;99969.35;;;17.64;44.38
63708;BME280;67643;-34.198;22.084;2023-07-08T05:55:53;99972.45;;;17.31;44.26
63708;BME280;67643;-34.198;22.084;2023-07-08T05:58:22;99978.81;;;17.44;44.45
63708;BME280;67643;-34.198;22.084;2023-07-08T06:00:55;99980.05;;;17.74;43.79
63708;BME280;67643;-34.198;22.084;2023-07-08T06:03:24;99980.71;;;17.88;41.82
63708;BME280;67643;-34.198;22.084;2023-07-08T06:05:53;99986.29;;;17.98;41.16
63708;BME280;67643;-34.198;22.084;2023-07-08T06:08:23;99983.42;;;17.52;39.12
63708;BME280;67643;-34.198;22.084;2023-07-08T06:10:51;99990.13;;;17.17;39.38
63708;BME280;67643;-34.198;22.084;2023-07-08T06:13:20;99993.22;;;17.46;39.42
63708;BME280;67643;-34.198;22.084;2023-07-08T06:15:48;99995.43;;;17.29;39.26
63708;BME280;67643;-34.198;22.084;2023-07-08T06:18:16;99994.30;;;17.44;39.39
63708;BME280;67643;-34.198;22.084;2023-07-08T06:20:55;99999.93;;;17.72;39.19
63708;BME280;67643;-34.198;22.084;2023-07-08T06:23:25;100008.11;;;17.98;38.82
63708;BME280;67643;-34.198;22.084;2023-07-08T06:25:53;100003.19;;;17.22;39.66
63708;BME280;67643;-34.198;22.084;2023-07-08T06:28:22;100004.94;;;17.54;39.43
63708;BME280;67643;-34.198;22.084;2023-07-08T06:30:51;100008.45;;;17.90;39.67
63708;BME280;67643;-34.198;22.084;2023-07-08T06:33:19;100014.02;;;17.34;39.47
63708;BME280;67643;-34.198;22.084;2023-07-08T06:35:48;100015.21;;;17.50;39.52
63708;BME280;67643;-34.198;22.084;2023-07-08T06:38:16;100018.67;;;17.48;39.40
63708;BME280;67643;-34.198;22.084;2023-07-08T06:40:45;100019.86;;;17.32;39.84
63708;BME280;67643;-34.198;22.084;2023-07-08T06:43:14;100032.13;;;17.50;39.71
63708;BME280;67643;-34.198;22.084;2023-07-08T06:45:43;100037.45;;;17.41;39.10
63708;BME280;67643;-34.198;22.084;2023-07-08T06:48:12;100031.53;;;17.51;39.17
63708;BME280;67643;-34.198;22.084;2023-07-08T06:50:45;100029.84;;;17.36;40.05
63708;BME280;67643;-34.198;22.084;2023-07-08T06:53:14;100029.21;;;17.33;38.59
63708;BME280;67643;-34.198;22.084;2023-07-08T06:55:45;100035.99;;;17.71;40.41
63708;BME280;67643;-34.198;22.084;2023-07-08T06:58:14;100039.60;;;17.43;39.42
63708;BME280;67643;-34.198;22.084;2023-07-08T07:00:43;100046.30;;;17.54;40.00
63708;BME280;67643;-34.198;22.084;2023-07-08T07:03:11;100052.70;;;17.51;38.18
63708;BME280;67643;-34.198;22.084;2023-07-08T07:05:40;100063.72;;;17.84;40.12
63708;BME280;67643;-34.198;22.084;2023-07-08T07:08:08;100069.88;;;17.52;40.97
63708;BME280;67643;-34.198;22.084;2023-07-08T07:10:37;100073.96;;;17.33;40.20
63708;BME280;67643;-34.198;22.084;2023-07-08T07:13:06;100083.07;;;17.70;40.10
63708;BME280;67643;-34.198;22.084;2023-07-08T07:15:35;100099.57;;;17.55;41.67
63708;BME280;67643;-34.198;22.084;2023-07-08T07:18:04;100101.11;;;17.56;39.75
63708;BME280;67643;-34.198;22.084;2023-07-08T07:20:35;100101.64;;;17.27;41.67
63708;BME280;67643;-34.198;22.084;2023-07-08T07:23:04;100107.85;;;17.35;40.02
63708;BME280;67643;-34.198;22.084;2023-07-08T07:25:32;100119.34;;;17.64;41.44
63708;BME280;67643;-34.198;22.084;2023-07-08T07:28:00;100131.58;;;17.66;39.03
63708;BME280;67643;-34.198;22.084;2023-07-08T07:30:29;100134.08;;;17.82;39.35
63708;BME280;67643;-34.198;22.084;2023-07-08T07:32:59;100136.18;;;17.55;41.71
63708;BME280;67643;-34.198;22.084;2023-07-08T07:35:28;100140.46;;;17.48;39.87
63708;BME280;67643;-34.198;22.084;2023-07-08T07:37:57;100150.17;;;17.22;41.93
63708;BME280;67643;-34.198;22.084;2023-07-08T07:40:25;100154.60;;;17.42;40.81
63708;BME280;67643;-34.198;22.084;2023-07-08T07:42:54;100161.58;;;17.75;42.63
63708;BME280;67643;-34.198;22.084;2023-07-08T07:45:22;100171.09;;;17.75;42.68
63708;BME280;67643;-34.198;22.084;2023-07-08T07:47:51;100173.51;;;17.73;42.36
63708;BME280;67643;-34.198;22.084;2023-07-08T07:50:19;100183.80;;;17.70;42.36
63708;BME280;67643;-34.198;22.084;2023-07-08T07:52:47;100198.95;;;17.62;42.35
63708;BME280;67643;-34.198;22.084;2023-07-08T07:55:17;100197.98;;;17.77;42.04
63708;BME280;67643;-34.198;22.084;2023-07-08T07:57:47;100201.65;;;17.78;41.94
63708;BME280;67643;-34.198;22.084;2023-07-08T08:00:15;100217.95;;;17.61;42.03
63708;BME280;67643;-34.198;22.084;2023-07-08T08:02:44;100226.21;;;18.09;41.55
63708;BME280;67643;-34.198;22.084;2023-07-08T08:05:14;100232.94;;;17.86;41.36
63708;BME280;67643;-34.198;22.084;2023-07-08T08:07:42;100227.31;;;17.76;41.14
63708;BME280;67643;-34.198;22.084;2023-07-08T08:10:11;100226.64;;;18.23;40.36
63708;BME280;67643;-34.198;22.084;2023-07-08T08:12:39;100224.76;;;18.21;40.24
63708;BME280;67643;-34.198;22.084;2023-07-08T08:15:08;100235.20;;;18.18;40.35
63708;BME280;67643;-34.198;22.084;2023-07-08T08:17:37;100241.75;;;18.00;40.60
63708;BME280;67643;-34.198;22.084;2023-07-08T08:20:07;100240.36;;;18.21;39.72
63708;BME280;67643;-34.198;22.084;2023-07-08T08:22:36;100242.94;;;17.60;39.98
63708;BME280;67643;-34.198;22.084;2023-07-08T08:25:05;100246.66;;;17.59;40.45
63708;BME280;67643;-34.198;22.084;2023-07-08T08:27:33;100257.14;;;17.30;40.54
63708;BME280;67643;-34.198;22.084;2023-07-08T08:30:01;100266.57;;;17.63;40.21
63708;BME280;67643;-34.198;22.084;2023-07-08T08:32:30;100272.58;;;17.73;40.40
63708;BME280;67643;-34.198;22.084;2023-07-08T08:35:04;100270.96;;;17.65;40.09
63708;BME280;67643;-34.198;22.084;2023-07-08T08:37:32;100274.26;;;17.73;40.34
63708;BME280;67643;-34.198;22.084;2023-07-08T08:40:01;100266.95;;;17.58;40.21
63708;BME280;67643;-34.198;22.084;2023-07-08T08:42:33;100273.96;;;17.45;40.09
63708;BME280;67643;-34.198;22.084;2023-07-08T08:45:04;100259.15;;;17.69;39.78
63708;BME280;67643;-34.198;22.084;2023-07-08T08:47:38;100274.34;;;17.26;40.67
63708;BME280;67643;-34.198;22.084;2023-07-08T08:50:20;100289.35;;;17.58;39.60
63708;BME280;67643;-34.198;22.084;2023-07-08T08:52:52;100283.31;;;17.34;39.78
63708;BME280;67643;-34.198;22.084;2023-07-08T08:55:22;100272.24;;;17.35;40.29
63708;BME280;67643;-34.198;22.084;2023-07-08T08:58:10;100276.70;;;17.40;40.52
63708;BME280;67643;-34.198;22.084;2023-07-08T09:00:51;100275.18;;;17.46;40.04
63708;BME280;67643;-34.198;22.084;2023-07-08T09:03:32;100280.97;;;17.22;39.96
63708;BME280;67643;-34.198;22.084;2023-07-08T09:06:10;100284.53;;;17.11;40.72
63708;BME280;67643;-34.198;22.084;2023-07-08T09:08:40;100273.44;;;16.90;40.50
63708;BME280;67643;-34.198;22.084;2023-07-08T09:11:19;100275.70;;;16.84;40.61
63708;BME280;67643;-34.198;22.084;2023-07-08T09:13:50;100273.88;;;16.78;40.38
63708;BME280;67643;-34.198;22.084;2023-07-08T09:16:28;100276.46;;;16.61;41.20
63708;BME280;67643;-34.198;22.084;2023-07-08T09:19:03;100276.09;;;16.50;41.21
63708;BME280;67643;-34.198;22.084;2023-07-08T09:21:37;100269.07;;;16.63;40.83
63708;BME280;67643;-34.198;22.084;2023-07-08T09:24:16;100264.86;;;16.81;40.98
63708;BME280;67643;-34.198;22.084;2023-07-08T09:26:46;100265.35;;;16.52;41.17
63708;BME280;67643;-34.198;22.084;2023-07-08T09:29:15;100267.94;;;16.55;40.94
63708;BME280;67643;-34.198;22.084;2023-07-08T09:31:43;100259.89;;;16.58;40.93
63708;BME280;67643;-34.198;22.084;2023-07-08T09:34:14;100254.81;;;16.72;40.85
63708;BME280;67643;-34.198;22.084;2023-07-08T09:36:46;100259.74;;;16.74;40.66
63708;BME280;67643;-34.198;22.084;2023-07-08T09:39:17;100257.87;;;16.83;41.28
63708;BME280;67643;-34.198;22.084;2023-07-08T09:41:48;100240.60;;;16.91;40.71
63708;BME280;67643;-34.198;22.084;2023-07-08T09:44:22;100236.63;;;16.82;41.06
63708;BME280;67643;-34.198;22.084;2023-07-08T09:46:51;100239.11;;;17.24;40.80
63708;BME280;67643;-34.198;22.084;2023-07-08T09:49:23;100242.83;;;16.52;41.23
63708;BME280;67643;-34.198;22.084;2023-07-08T09:51:52;100239.74;;;16.88;41.20
63708;BME280;67643;-34.198;22.084;2023-07-08T09:54:23;100234.21;;;16.69;41.11
63708;BME280;67643;-34.198;22.084;2023-07-08T09:56:57;100232.65;;;16.93;40.78
63708;BME280;67643;-34.198;22.084;2023-07-08T09:59:30;100226.52;;;17.11;40.34
63708;BME280;67643;-34.198;22.084;2023-07-08T10:02:02;100236.53;;;17.02;40.33
63708;BME280;67643;-34.198;22.084;2023-07-08T10:04:32;100228.45;;;16.98;41.14
63708;BME280;67643;-34.198;22.084;2023-07-08T10:07:01;100230.49;;;17.20;40.83
63708;BME280;67643;-34.198;22.084;2023-07-08T10:09:29;100224.81;;;17.12;40.81
63708;BME280;67643;-34.198;22.084;2023-07-08T10:12:01;100216.32;;;17.02;40.83
63708;BME280;67643;-34.198;22.084;2023-07-08T10:14:36;100207.60;;;17.35;40.37
63708;BME280;67643;-34.198;22.084;2023-07-08T10:17:05;100212.87;;;17.45;40.33
63708;BME280;67643;-34.198;22.084;2023-07-08T10:19:34;100207.42;;;17.57;40.16
63708;BME280;67643;-34.198;22.084;2023-07-08T10:22:16;100213.16;;;17.72;40.04
63708;BME280;67643;-34.198;22.084;2023-07-08T10:25:06;100219.55;;;17.75;39.91
63708;BME280;67643;-34.198;22.084;2023-07-08T10:27:43;100216.57;;;17.79;39.93
63708;BME280;67643;-34.198;22.084;2023-07-08T10:30:21;100220.07;;;17.56;40.33
63708;BME280;67643;-34.198;22.084;2023-07-08T10:33:05;100211.66;;;17.63;39.84
63708;BME280;67643;-34.198;22.084;2023-07-08T10:35:42;100214.67;;;17.80;39.88
63708;BME280;67643;-34.198;22.084;2023-07-08T10:38:29;100207.96;;;17.82;39.82
63708;BME280;67643;-34.198;22.084;2023-07-08T10:41:08;100216.15;;;17.82;39.82
63708;BME280;67643;-34.198;22.084;2023-07-08T10:43:52;100203.32;;;17.82;39.76
63708;BME280;67643;-34.198;22.084;2023-07-08T10:46:31;100197.88;;;17.66;39.52
63708;BME280;67643;-34.198;22.084;2023-07-08T10:49:16;100192.02;;;17.75;39.27
63708;BME280;67643;-34.198;22.084;2023-07-08T10:52:01;100185.07;;;18.00;39.13
63708;BME280;67643;-34.198;22.084;2023-07-08T10:54:44;100180.79;;;18.03;39.00
63708;BME280;67643;-34.198;22.084;2023-07-08T10:57:32;100182.61;;;18.10;38.74
63708;BME280;67643;-34.198;22.084;2023-07-08T11:00:11;100177.19;;;18.15;38.51
63708;BME280;67643;-34.198;22.084;2023-07-08T11:03:08;100180.60;;;17.92;38.34
63708;BME280;67643;-34.198;22.084;2023-07-08T11:05:45;100183.67;;;17.84;38.33
63708;BME280;67643;-34.198;22.084;2023-07-08T11:08:20;100178.69;;;18.13;38.14
63708;BME280;67643;-34.198;22.084;2023-07-08T11:10:53;100174.95;;;17.66;37.94
63708;BME280;67643;-34.198;22.084;2023-07-08T11:13:28;100185.19;;;18.27;37.74
63708;BME280;67643;-34.198;22.084;2023-07-08T11:16:01;100173.40;;;18.10;37.92
63708;BME280;67643;-34.198;22.084;2023-07-08T11:18:40;100178.66;;;17.77;37.59
63708;BME280;67643;-34.198;22.084;2023-07-08T11:21:14;100172.80;;;18.11;37.85
63708;BME280;67643;-34.198;22.084;2023-07-08T11:23:49;100173.24;;;17.92;37.74
63708;BME280;67643;-34.198;22.084;2023-07-08T11:26:23;100169.16;;;17.71;37.56
63708;BME280;67643;-34.198;22.084;2023-07-08T11:28:58;100160.25;;;18.06;37.45
63708;BME280;67643;-34.198;22.084;2023-07-08T11:31:28;100158.54;;;18.11;37.37
63708;BME280;67643;-34.198;22.084;2023-07-08T11:34:00;100155.70;;;17.87;37.23
63708;BME280;67643;-34.198;22.084;2023-07-08T11:36:31;100164.09;;;17.89;37.17
63708;BME280;67643;-34.198;22.084;2023-07-08T11:39:01;100146.95;;;18.12;37.32
63708;BME280;67643;-34.198;22.084;2023-07-08T11:41:32;100150.87;;;17.44;37.27
63708;BME280;67643;-34.198;22.084;2023-07-08T11:44:04;100147.85;;;18.11;36.91
63708;BME280;67643;-34.198;22.084;2023-07-08T11:46:34;100143.16;;;18.31;37.08
63708;BME280;67643;-34.198;22.084;2023-07-08T11:49:06;100144.08;;;18.32;36.99
63708;BME280;67643;-34.198;22.084;2023-07-08T11:51:42;100140.51;;;18.19;37.18
63708;BME280;67643;-34.198;22.084;2023-07-08T11:54:14;100143.61;;;18.23;37.58
63708;BME280;67643;-34.198;22.084;2023-07-08T11:56:50;100147.45;;;18.20;37.63
63708;BME280;67643;-34.198;22.084;2023-07-08T11:59:28;100153.48;;;18.16;37.72
63708;BME280;67643;-34.198;22.084;2023-07-08T12:02:03;100168.23;;;18.03;37.77
63708;BME280;67643;-34.198;22.084;2023-07-08T12:04:34;100172.90;;;17.90;37.87
63708;BME280;67643;-34.198;22.084;2023-07-08T12:07:09;100172.45;;;17.95;38.13
63708;BME280;67643;-34.198;22.084;2023-07-08T12:09:44;100171.80;;;17.78;38.00
63708;BME280;67643;-34.198;22.084;2023-07-08T12:12:21;100174.71;;;18.04;37.97
63708;BME280;67643;-34.198;22.084;2023-07-08T12:14:53;100176.78;;;18.06;37.81
63708;BME280;67643;-34.198;22.084;2023-07-08T12:17:23;100177.45;;;18.05;37.81
63708;BME280;67643;-34.198;22.084;2023-07-08T12:19:51;100177.56;;;17.91;37.88
63708;BME280;67643;-34.198;22.084;2023-07-08T12:22:23;100183.68;;;17.83;38.01
63708;BME280;67643;-34.198;22.084;2023-07-08T12:24:51;100182.87;;;17.54;38.05
63708;BME280;67643;-34.198;22.084;2023-07-08T12:27:20;100191.24;;;17.75;38.08
63708;BME280;67643;-34.198;22.084;2023-07-08T12:29:49;100216.52;;;17.71;37.98
63708;BME280;67643;-34.198;22.084;2023-07-08T12:32:18;100212.17;;;17.80;37.96
63708;BME280;67643;-34.198;22.084;2023-07-08T12:34:48;100207.85;;;18.03;37.45
63708;BME280;67643;-34.198;22.084;2023-07-08T12:37:16;100214.84;;;18.02;37.55
63708;BME280;67643;-34.198;22.084;2023-07-08T12:39:55;100208.02;;;17.91;37.61
63708;BME280;67643;-34.198;22.084;2023-07-08T12:42:24;100207.39;;;17.84;37.27
63708;BME280;67643;-34.198;22.084;2023-07-08T12:44:52;100208.28;;;18.01;37.25
63708;BME280;67643;-34.198;22.084;2023-07-08T12:47:21;100208.39;;;17.91;37.34
63708;BME280;67643;-34.198;22.084;2023-07-08T12:49:49;100207.88;;;17.75;37.13
63708;BME280;67643;-34.198;22.084;2023-07-08T12:52:22;100214.12;;;17.96;36.60
63708;BME280;67643;-34.198;22.084;2023-07-08T12:54:51;100210.38;;;17.92;37.00